sensor_id;sensor_type;location;lat;lon;timestamp;pressure;altitude;pressure_sealevel;temperature;humidity
49461;BME280;35355;49.198;-0.368;2023-03-14T00:01:38;98636.81;;;12.29;73.90
49461;BME280;35355;49.198;-0.368;2023-03-14T00:04:06;98636.81;;;12.29;73.46
49461;BME280;35355;49.198;-0.368;2023-03-14T00:06:32;98637.63;;;12.29;73.43
49461;BME280;35355;49.198;-0.368;2023-03-14T00:08:57;98634.41;;;12.27;73.58
49461;BME280;35355;49.198;-0.368;2023-03-14T00:11:22;98642.94;;;12.26;73.76
49461;BME280;35355;49.198;-0.368;2023-03-14T00:13:49;98642.16;;;12.25;73.67
49461;BME280;35355;49.198;-0.368;2023-03-14T00:16:15;98646.34;;;12.23;74.13
49461;BME280;35355;49.198;-0.368;2023-03-14T00:18:40;98653.09;;;12.25;73.95
49461;BME280;35355;49.198;-0.368;2023-03-14T00:21:07;98654.34;;;12.28;73.98
49461;BME280;35355;49.198;-0.368;2023-03-14T00:23:36;98647.78;;;12.29;74.39
49461;BME280;35355;49.198;-0.368;2023-03-14T00:26:11;98646.16;;;12.28;74.09
49461;BME280;35355;49.198;-0.368;2023-03-14T00:28:37;98645.50;;;12.31;74.16
49461;BME280;35355;49.198;-0.368;2023-03-14T00:31:07;98655.31;;;12.32;74.39
49461;BME280;35355;49.198;-0.368;2023-03-14T00:33:33;98654.19;;;12.33;74.65
49461;BME280;35355;49.198;-0.368;2023-03-14T00:36:04;98655.81;;;12.34;74.42
49461;BME280;35355;49.198;-0.368;2023-03-14T00:38:31;98657.91;;;12.37;74.62
49461;BME280;35355;49.198;-0.368;2023-03-14T00:40:58;98662.88;;;12.35;74.66
49461;BME280;35355;49.198;-0.368;2023-03-14T00:43:23;98671.09;;;12.35;74.79
49461;BME280;35355;49.198;-0.368;2023-03-14T00:45:50;98664.03;;;12.34;74.86
49461;BME280;35355;49.198;-0.368;2023-03-14T00:48:17;98664.66;;;12.31;74.92
49461;BME280;35355;49.198;-0.368;2023-03-14T00:50:43;98671.75;;;12.32;74.97
49461;BME280;35355;49.198;-0.368;2023-03-14T00:53:09;98669.78;;;12.33;75.14
49461;BME280;35355;49.198;-0.368;2023-03-14T00:55:41;98673.69;;;12.32;74.83
49461;BME280;35355;49.198;-0.368;2023-03-14T00:58:08;98680.72;;;12.33;75.55
49461;BME280;35355;49.198;-0.368;2023-03-14T01:00:33;98682.22;;;12.30;75.76
49461;BME280;35355;49.198;-0.368;2023-03-14T01:02:59;98686.53;;;12.31;75.59
49461;BME280;35355;49.198;-0.368;2023-03-14T01:05:25;98685.41;;;12.32;75.81
49461;BME280;35355;49.198;-0.368;2023-03-14T01:07:51;98684.63;;;12.32;76.06
49461;BME280;35355;49.198;-0.368;2023-03-14T01:10:16;98684.94;;;12.30;76.04
49461;BME280;35355;49.198;-0.368;2023-03-14T01:12:42;98687.69;;;12.30;76.10
49461;BME280;35355;49.198;-0.368;2023-03-14T01:15:08;98692.50;;;12.33;76.23
49461;BME280;35355;49.198;-0.368;2023-03-14T01:17:33;98708.91;;;12.33;76.20
49461;BME280;35355;49.198;-0.368;2023-03-14T01:20:00;98703.13;;;12.35;76.57
49461;BME280;35355;49.198;-0.368;2023-03-14T01:22:25;98707.47;;;12.36;76.36
49461;BME280;35355;49.198;-0.368;2023-03-14T01:24:51;98710.53;;;12.34;76.55
49461;BME280;35355;49.198;-0.368;2023-03-14T01:27:16;98711.31;;;12.35;76.26
49461;BME280;35355;49.198;-0.368;2023-03-14T01:29:41;98717.59;;;12.35;76.57
49461;BME280;35355;49.198;-0.368;2023-03-14T01:32:07;98715.81;;;12.39;76.23
49461;BME280;35355;49.198;-0.368;2023-03-14T01:34:32;98729.66;;;12.43;76.26
49461;BME280;35355;49.198;-0.368;2023-03-14T01:36:57;98736.75;;;12.44;76.59
49461;BME280;35355;49.198;-0.368;2023-03-14T01:39:23;98729.81;;;12.46;76.50
49461;BME280;35355;49.198;-0.368;2023-03-14T01:41:48;98741.56;;;12.47;76.57
49461;BME280;35355;49.198;-0.368;2023-03-14T01:44:14;98738.34;;;12.45;76.60
49461;BME280;35355;49.198;-0.368;2023-03-14T01:46:41;98744.47;;;12.42;76.30
49461;BME280;35355;49.198;-0.368;2023-03-14T01:49:08;98754.78;;;12.45;76.69
49461;BME280;35355;49.198;-0.368;2023-03-14T01:54:28;98760.25;;;12.45;75.94
49461;BME280;35355;49.198;-0.368;2023-03-14T01:59:31;98770.38;;;12.44;76.67
49461;BME280;35355;49.198;-0.368;2023-03-14T02:01:58;98777.31;;;12.42;76.58
49461;BME280;35355;49.198;-0.368;2023-03-14T02:04:29;98786.50;;;12.37;76.84
49461;BME280;35355;49.198;-0.368;2023-03-14T02:07:15;98799.19;;;12.33;76.35
49461;BME280;35355;49.198;-0.368;2023-03-14T02:09:42;98807.41;;;12.33;76.93
49461;BME280;35355;49.198;-0.368;2023-03-14T02:12:09;98828.31;;;12.29;77.07
49461;BME280;35355;49.198;-0.368;2023-03-14T02:14:37;98826.06;;;12.22;76.99
49461;BME280;35355;49.198;-0.368;2023-03-14T02:17:04;98861.28;;;12.15;77.15
49461;BME280;35355;49.198;-0.368;2023-03-14T02:22:17;98890.50;;;12.06;77.02
49461;BME280;35355;49.198;-0.368;2023-03-14T02:27:16;98910.34;;;11.80;75.94
49461;BME280;35355;49.198;-0.368;2023-03-14T02:29:52;98923.47;;;11.69;75.62
49461;BME280;35355;49.198;-0.368;2023-03-14T02:32:19;98938.69;;;11.62;75.12
49461;BME280;35355;49.198;-0.368;2023-03-14T02:34:49;98963.44;;;11.56;75.09
49461;BME280;35355;49.198;-0.368;2023-03-14T02:37:19;98972.69;;;11.47;74.50
49461;BME280;35355;49.198;-0.368;2023-03-14T02:39:45;98974.56;;;11.37;74.39
49461;BME280;35355;49.198;-0.368;2023-03-14T02:42:12;98971.44;;;11.30;74.10
49461;BME280;35355;49.198;-0.368;2023-03-14T02:47:19;98997.69;;;11.17;74.09
49461;BME280;35355;49.198;-0.368;2023-03-14T02:49:46;99002.97;;;11.14;73.82
49461;BME280;35355;49.198;-0.368;2023-03-14T02:52:11;99002.78;;;11.10;73.88
49461;BME280;35355;49.198;-0.368;2023-03-14T02:54:36;99006.09;;;11.07;73.59
49461;BME280;35355;49.198;-0.368;2023-03-14T02:57:03;99017.56;;;10.95;73.20
49461;BME280;35355;49.198;-0.368;2023-03-14T02:59:28;99028.28;;;10.92;73.34
49461;BME280;35355;49.198;-0.368;2023-03-14T03:01:53;99040.63;;;10.89;73.07
49461;BME280;35355;49.198;-0.368;2023-03-14T03:04:19;99048.94;;;10.84;72.81
49461;BME280;35355;49.198;-0.368;2023-03-14T03:06:44;99052.28;;;10.81;72.43
49461;BME280;35355;49.198;-0.368;2023-03-14T03:09:10;99059.75;;;10.75;72.25
49461;BME280;35355;49.198;-0.368;2023-03-14T03:11:35;99090.38;;;10.72;72.06
49461;BME280;35355;49.198;-0.368;2023-03-14T03:14:00;99098.97;;;10.65;72.04
49461;BME280;35355;49.198;-0.368;2023-03-14T03:16:26;99100.19;;;10.59;71.51
49461;BME280;35355;49.198;-0.368;2023-03-14T03:18:51;99117.75;;;10.53;71.65
49461;BME280;35355;49.198;-0.368;2023-03-14T03:21:16;99127.66;;;10.49;71.29
49461;BME280;35355;49.198;-0.368;2023-03-14T03:23:42;99135.41;;;10.42;71.29
49461;BME280;35355;49.198;-0.368;2023-03-14T03:26:09;99141.84;;;10.32;71.28
49461;BME280;35355;49.198;-0.368;2023-03-14T03:28:34;99147.38;;;10.27;70.57
49461;BME280;35355;49.198;-0.368;2023-03-14T03:31:06;99168.75;;;10.19;70.86
49461;BME280;35355;49.198;-0.368;2023-03-14T03:33:32;99168.03;;;10.14;70.80
49461;BME280;35355;49.198;-0.368;2023-03-14T03:35:57;99188.28;;;10.08;70.73
49461;BME280;35355;49.198;-0.368;2023-03-14T03:38:22;99183.75;;;10.03;70.41
49461;BME280;35355;49.198;-0.368;2023-03-14T03:40:48;99198.75;;;10.00;70.42
49461;BME280;35355;49.198;-0.368;2023-03-14T03:43:13;99205.59;;;9.98;70.56
49461;BME280;35355;49.198;-0.368;2023-03-14T03:45:39;99221.47;;;9.96;70.66
49461;BME280;35355;49.198;-0.368;2023-03-14T03:48:05;99224.47;;;9.94;70.61
49461;BME280;35355;49.198;-0.368;2023-03-14T03:50:30;99240.63;;;9.91;70.29
49461;BME280;35355;49.198;-0.368;2023-03-14T03:52:56;99267.06;;;9.90;69.95
49461;BME280;35355;49.198;-0.368;2023-03-14T03:55:21;99265.44;;;9.89;70.01
49461;BME280;35355;49.198;-0.368;2023-03-14T03:57:47;99264.41;;;9.85;69.71
49461;BME280;35355;49.198;-0.368;2023-03-14T04:00:12;99282.66;;;9.84;69.75
49461;BME280;35355;49.198;-0.368;2023-03-14T04:02:38;99285.66;;;9.83;69.71
49461;BME280;35355;49.198;-0.368;2023-03-14T04:05:03;99296.56;;;9.83;69.36
49461;BME280;35355;49.198;-0.368;2023-03-14T04:07:31;99301.00;;;9.79;69.59
49461;BME280;35355;49.198;-0.368;2023-03-14T04:09:57;99303.50;;;9.75;69.25
49461;BME280;35355;49.198;-0.368;2023-03-14T04:12:22;99308.44;;;9.73;68.94
49461;BME280;35355;49.198;-0.368;2023-03-14T04:14:48;99314.75;;;9.69;68.83
49461;BME280;35355;49.198;-0.368;2023-03-14T04:17:13;99324.03;;;9.68;68.73
49461;BME280;35355;49.198;-0.368;2023-03-14T04:19:38;99336.56;;;9.69;68.48
49461;BME280;35355;49.198;-0.368;2023-03-14T04:22:04;99338.16;;;9.70;68.23
49461;BME280;35355;49.198;-0.368;2023-03-14T04:24:29;99335.97;;;9.72;68.33
49461;BME280;35355;49.198;-0.368;2023-03-14T04:26:54;99352.81;;;9.74;68.21
49461;BME280;35355;49.198;-0.368;2023-03-14T04:29:20;99353.63;;;9.74;67.78
49461;BME280;35355;49.198;-0.368;2023-03-14T04:31:45;99370.25;;;9.73;67.79
49461;BME280;35355;49.198;-0.368;2023-03-14T04:34:11;99367.03;;;9.71;67.63
49461;BME280;35355;49.198;-0.368;2023-03-14T04:36:36;99374.69;;;9.69;67.45
49461;BME280;35355;49.198;-0.368;2023-03-14T04:39:02;99381.28;;;9.62;67.86
49461;BME280;35355;49.198;-0.368;2023-03-14T04:41:29;99394.38;;;9.60;67.26
49461;BME280;35355;49.198;-0.368;2023-03-14T04:43:54;99396.81;;;9.62;67.69
49461;BME280;35355;49.198;-0.368;2023-03-14T04:46:20;99405.28;;;9.60;67.43
49461;BME280;35355;49.198;-0.368;2023-03-14T04:48:45;99411.31;;;9.57;67.56
49461;BME280;35355;49.198;-0.368;2023-03-14T04:51:10;99416.25;;;9.55;67.63
49461;BME280;35355;49.198;-0.368;2023-03-14T04:53:36;99419.50;;;9.52;67.72
49461;BME280;35355;49.198;-0.368;2023-03-14T04:56:02;99421.16;;;9.53;67.73
49461;BME280;35355;49.198;-0.368;2023-03-14T04:58:28;99419.50;;;9.52;67.46
49461;BME280;35355;49.198;-0.368;2023-03-14T05:00:53;99421.16;;;9.53;67.32
49461;BME280;35355;49.198;-0.368;2023-03-14T05:03:19;99430.38;;;9.57;67.75
49461;BME280;35355;49.198;-0.368;2023-03-14T05:05:44;99444.50;;;9.59;67.40
49461;BME280;35355;49.198;-0.368;2023-03-14T05:08:10;99450.25;;;9.58;67.40
49461;BME280;35355;49.198;-0.368;2023-03-14T05:10:35;99455.97;;;9.56;67.69
49461;BME280;35355;49.198;-0.368;2023-03-14T05:13:01;99463.06;;;9.57;67.66
49461;BME280;35355;49.198;-0.368;2023-03-14T05:15:26;99469.59;;;9.56;67.65
49461;BME280;35355;49.198;-0.368;2023-03-14T05:17:52;99479.41;;;9.57;67.55
49461;BME280;35355;49.198;-0.368;2023-03-14T05:20:19;99471.25;;;9.57;67.36
49461;BME280;35355;49.198;-0.368;2023-03-14T05:22:44;99466.88;;;9.56;67.62
49461;BME280;35355;49.198;-0.368;2023-03-14T05:25:10;99472.88;;;9.58;67.30
49461;BME280;35355;49.198;-0.368;2023-03-14T05:27:35;99484.28;;;9.60;67.13
49461;BME280;35355;49.198;-0.368;2023-03-14T05:30:02;99488.66;;;9.61;67.31
49461;BME280;35355;49.198;-0.368;2023-03-14T05:32:28;99480.47;;;9.61;67.14
49461;BME280;35355;49.198;-0.368;2023-03-14T05:34:53;99487.00;;;9.60;66.89
49461;BME280;35355;49.198;-0.368;2023-03-14T05:37:23;99496.28;;;9.59;66.75
49461;BME280;35355;49.198;-0.368;2023-03-14T05:39:48;99503.13;;;9.57;66.80
49461;BME280;35355;49.198;-0.368;2023-03-14T05:42:14;99500.69;;;9.55;66.63
49461;BME280;35355;49.198;-0.368;2023-03-14T05:44:39;99511.03;;;9.53;66.51
49461;BME280;35355;49.198;-0.368;2023-03-14T05:47:04;99520.56;;;9.56;66.71
49461;BME280;35355;49.198;-0.368;2023-03-14T05:49:30;99526.28;;;9.54;66.57
49461;BME280;35355;49.198;-0.368;2023-03-14T05:51:55;99533.91;;;9.57;66.69
49461;BME280;35355;49.198;-0.368;2023-03-14T05:54:20;99536.63;;;9.57;66.74
49461;BME280;35355;49.198;-0.368;2023-03-14T05:56:46;99550.75;;;9.59;66.42
49461;BME280;35355;49.198;-0.368;2023-03-14T05:59:11;99555.41;;;9.59;66.71
49461;BME280;35355;49.198;-0.368;2023-03-14T06:01:38;99567.38;;;9.58;66.42
49461;BME280;35355;49.198;-0.368;2023-03-14T06:04:04;99578.56;;;9.56;66.55
49461;BME280;35355;49.198;-0.368;2023-03-14T06:06:29;99568.50;;;9.57;66.48
49461;BME280;35355;49.198;-0.368;2023-03-14T06:08:54;99576.41;;;9.58;66.83
49461;BME280;35355;49.198;-0.368;2023-03-14T06:11:20;99586.72;;;9.61;66.57
49461;BME280;35355;49.198;-0.368;2023-03-14T06:13:45;99570.38;;;9.61;66.64
49461;BME280;35355;49.198;-0.368;2023-03-14T06:16:11;99583.72;;;9.58;66.75
49461;BME280;35355;49.198;-0.368;2023-03-14T06:18:37;99592.47;;;9.55;66.64
49461;BME280;35355;49.198;-0.368;2023-03-14T06:21:02;99606.94;;;9.55;66.80
49461;BME280;35355;49.198;-0.368;2023-03-14T06:23:27;99608.59;;;9.51;66.64
49461;BME280;35355;49.198;-0.368;2023-03-14T06:25:55;99616.50;;;9.47;66.68
49461;BME280;35355;49.198;-0.368;2023-03-14T06:28:21;99622.22;;;9.46;66.59
49461;BME280;35355;49.198;-0.368;2023-03-14T06:30:46;99626.06;;;9.45;66.65
49461;BME280;35355;49.198;-0.368;2023-03-14T06:33:11;99628.81;;;9.40;66.12
49461;BME280;35355;49.198;-0.368;2023-03-14T06:35:37;99643.50;;;9.39;66.14
49461;BME280;35355;49.198;-0.368;2023-03-14T06:38:02;99644.91;;;9.36;66.60
49461;BME280;35355;49.198;-0.368;2023-03-14T06:40:28;99642.97;;;9.37;66.38
49461;BME280;35355;49.198;-0.368;2023-03-14T06:42:53;99656.03;;;9.40;66.59
49461;BME280;35355;49.198;-0.368;2023-03-14T06:45:18;99668.00;;;9.39;66.51
49461;BME280;35355;49.198;-0.368;2023-03-14T06:47:44;99671.81;;;9.43;66.69
49461;BME280;35355;49.198;-0.368;2023-03-14T06:50:10;99681.91;;;9.42;66.71
49461;BME280;35355;49.198;-0.368;2023-03-14T06:52:36;99683.28;;;9.40;66.64
49461;BME280;35355;49.198;-0.368;2023-03-14T06:55:01;99689.81;;;9.39;66.83
49461;BME280;35355;49.198;-0.368;2023-03-14T06:57:27;99695.00;;;9.35;66.80
49461;BME280;35355;49.198;-0.368;2023-03-14T06:59:52;99695.84;;;9.30;66.52
49461;BME280;35355;49.198;-0.368;2023-03-14T07:02:18;99696.41;;;9.27;66.60
49461;BME280;35355;49.198;-0.368;2023-03-14T07:04:43;99698.84;;;9.24;66.41
49461;BME280;35355;49.198;-0.368;2023-03-14T07:07:09;99698.63;;;9.20;66.03
49461;BME280;35355;49.198;-0.368;2023-03-14T07:09:34;99720.66;;;9.19;65.80
49461;BME280;35355;49.198;-0.368;2023-03-14T07:12:00;99725.03;;;9.15;65.69
49461;BME280;35355;49.198;-0.368;2023-03-14T07:14:26;99726.94;;;9.14;65.40
49461;BME280;35355;49.198;-0.368;2023-03-14T07:16:51;99727.78;;;9.09;65.55
49461;BME280;35355;49.198;-0.368;2023-03-14T07:19:16;99747.09;;;9.08;65.32
49461;BME280;35355;49.198;-0.368;2023-03-14T07:21:42;99746.84;;;9.04;65.08
49461;BME280;35355;49.198;-0.368;2023-03-14T07:24:07;99752.28;;;9.04;64.94
49461;BME280;35355;49.198;-0.368;2023-03-14T07:26:33;99767.81;;;9.04;64.99
49461;BME280;35355;49.198;-0.368;2023-03-14T07:28:59;99774.06;;;9.04;65.04
49461;BME280;35355;49.198;-0.368;2023-03-14T07:31:24;99781.41;;;9.09;65.07
49461;BME280;35355;49.198;-0.368;2023-03-14T07:33:49;99795.28;;;9.12;65.17
49461;BME280;35355;49.198;-0.368;2023-03-14T07:36:15;99796.06;;;9.18;64.77
49461;BME280;35355;49.198;-0.368;2023-03-14T07:38:40;99791.19;;;9.20;64.86
49461;BME280;35355;49.198;-0.368;2023-03-14T07:41:06;99809.69;;;9.23;64.74
49461;BME280;35355;49.198;-0.368;2023-03-14T07:43:32;99819.22;;;9.26;64.34
49461;BME280;35355;49.198;-0.368;2023-03-14T07:45:58;99821.13;;;9.30;64.23
49461;BME280;35355;49.198;-0.368;2023-03-14T07:48:23;99838.53;;;9.35;64.21
49461;BME280;35355;49.198;-0.368;2023-03-14T07:50:53;99831.44;;;9.34;64.45
49461;BME280;35355;49.198;-0.368;2023-03-14T07:53:19;99846.69;;;9.40;63.98
49461;BME280;35355;49.198;-0.368;2023-03-14T07:55:45;99857.03;;;9.43;63.83
49461;BME280;35355;49.198;-0.368;2023-03-14T07:58:11;99860.84;;;9.42;63.75
49461;BME280;35355;49.198;-0.368;2023-03-14T08:00:36;99863.56;;;9.47;63.38
49461;BME280;35355;49.198;-0.368;2023-03-14T08:03:01;99873.91;;;9.50;63.13
49461;BME280;35355;49.198;-0.368;2023-03-14T08:05:27;99873.34;;;9.58;63.05
49461;BME280;35355;49.198;-0.368;2023-03-14T08:07:52;99894.84;;;9.65;62.89
49461;BME280;35355;49.198;-0.368;2023-03-14T08:10:18;99887.47;;;9.71;62.71
49461;BME280;35355;49.198;-0.368;2023-03-14T08:12:50;99903.53;;;9.72;62.52
49461;BME280;35355;49.198;-0.368;2023-03-14T08:15:15;99914.72;;;9.76;62.07
49461;BME280;35355;49.198;-0.368;2023-03-14T08:17:41;99913.09;;;9.75;61.79
49461;BME280;35355;49.198;-0.368;2023-03-14T08:20:06;99924.78;;;9.75;61.57
49461;BME280;35355;49.198;-0.368;2023-03-14T08:22:33;99926.69;;;9.80;61.27
49461;BME280;35355;49.198;-0.368;2023-03-14T08:24:59;99934.88;;;9.85;60.98
49461;BME280;35355;49.198;-0.368;2023-03-14T08:27:24;99931.59;;;9.88;60.63
49461;BME280;35355;49.198;-0.368;2023-03-14T08:29:49;99940.84;;;9.92;60.59
49461;BME280;35355;49.198;-0.368;2023-03-14T08:32:15;99935.91;;;9.99;60.65
49461;BME280;35355;49.198;-0.368;2023-03-14T08:34:40;99944.59;;;10.07;60.20
49461;BME280;35355;49.198;-0.368;2023-03-14T08:37:05;99951.94;;;10.16;60.14
49461;BME280;35355;49.198;-0.368;2023-03-14T08:39:31;99960.13;;;10.22;59.65
49461;BME280;35355;49.198;-0.368;2023-03-14T08:41:56;99971.03;;;10.22;59.43
49461;BME280;35355;49.198;-0.368;2023-03-14T08:44:21;99965.56;;;10.22;59.18
49461;BME280;35355;49.198;-0.368;2023-03-14T08:46:47;99967.19;;;10.23;59.10
49461;BME280;35355;49.198;-0.368;2023-03-14T08:49:12;99991.16;;;10.26;58.77
49461;BME280;35355;49.198;-0.368;2023-03-14T08:51:39;99990.06;;;10.32;58.71
49461;BME280;35355;49.198;-0.368;2023-03-14T08:54:05;99990.88;;;10.38;58.66
49461;BME280;35355;49.198;-0.368;2023-03-14T08:56:30;99998.78;;;10.44;58.40
49461;BME280;35355;49.198;-0.368;2023-03-14T08:58:55;100006.94;;;10.55;58.83
49461;BME280;35355;49.198;-0.368;2023-03-14T09:01:20;99988.91;;;10.53;58.49
49461;BME280;35355;49.198;-0.368;2023-03-14T09:03:49;100013.97;;;10.66;58.18
49461;BME280;35355;49.198;-0.368;2023-03-14T09:06:15;100016.91;;;10.75;58.17
49461;BME280;35355;49.198;-0.368;2023-03-14T09:08:43;100017.72;;;10.80;58.17
49461;BME280;35355;49.198;-0.368;2023-03-14T09:11:08;100019.31;;;10.86;57.78
49461;BME280;35355;49.198;-0.368;2023-03-14T09:13:34;100011.91;;;10.92;58.10
49461;BME280;35355;49.198;-0.368;2023-03-14T09:15:59;100010.78;;;10.98;57.41
49461;BME280;35355;49.198;-0.368;2023-03-14T09:18:24;100021.69;;;11.03;57.79
49461;BME280;35355;49.198;-0.368;2023-03-14T09:20:50;100019.69;;;11.14;57.51
49461;BME280;35355;49.198;-0.368;2023-03-14T09:23:15;100035.78;;;11.21;56.96
49461;BME280;35355;49.198;-0.368;2023-03-14T09:25:40;100035.22;;;11.19;56.93
49461;BME280;35355;49.198;-0.368;2023-03-14T09:28:06;100039.59;;;11.20;56.43
49461;BME280;35355;49.198;-0.368;2023-03-14T09:30:31;100041.75;;;11.28;56.63
49461;BME280;35355;49.198;-0.368;2023-03-14T09:32:57;100047.72;;;11.35;56.56
49461;BME280;35355;49.198;-0.368;2023-03-14T09:35:24;100052.59;;;11.38;55.99
49461;BME280;35355;49.198;-0.368;2023-03-14T09:37:49;100069.59;;;11.30;56.11
49461;BME280;35355;49.198;-0.368;2023-03-14T09:40:16;100080.34;;;11.11;57.00
49461;BME280;35355;49.198;-0.368;2023-03-14T09:42:43;100078.00;;;10.89;57.07
49461;BME280;35355;49.198;-0.368;2023-03-14T09:45:17;100091.75;;;10.63;58.02
49461;BME280;35355;49.198;-0.368;2023-03-14T09:47:46;100084.75;;;10.37;58.98
49461;BME280;35355;49.198;-0.368;2023-03-14T09:50:14;100082.81;;;10.37;59.67
49461;BME280;35355;49.198;-0.368;2023-03-14T09:52:48;100083.63;;;10.38;60.34
49461;BME280;35355;49.198;-0.368;2023-03-14T09:55:19;100093.47;;;10.44;60.32
49461;BME280;35355;49.198;-0.368;2023-03-14T09:57:47;100102.16;;;10.51;60.57
49461;BME280;35355;49.198;-0.368;2023-03-14T10:00:19;100090.69;;;10.59;61.29
49461;BME280;35355;49.198;-0.368;2023-03-14T10:02:57;100104.56;;;10.68;61.01
49461;BME280;35355;49.198;-0.368;2023-03-14T10:05:25;100095.53;;;10.73;60.72
49461;BME280;35355;49.198;-0.368;2023-03-14T10:07:53;100105.91;;;10.81;60.65
49461;BME280;35355;49.198;-0.368;2023-03-14T10:10:24;100137.50;;;10.92;61.12
49461;BME280;35355;49.198;-0.368;2023-03-14T10:13:12;100151.69;;;10.99;61.37
49461;BME280;35355;49.198;-0.368;2023-03-14T10:15:39;100170.00;;;10.94;60.88
49461;BME280;35355;49.198;-0.368;2023-03-14T10:18:11;100162.16;;;10.77;61.08
49461;BME280;35355;49.198;-0.368;2023-03-14T10:20:44;100159.19;;;10.58;61.24
49461;BME280;35355;49.198;-0.368;2023-03-14T10:25:40;100134.41;;;10.33;62.22
49461;BME280;35355;49.198;-0.368;2023-03-14T10:28:43;100134.91;;;10.25;61.87
49461;BME280;35355;49.198;-0.368;2023-03-14T10:31:09;100138.19;;;10.27;63.01
49461;BME280;35355;49.198;-0.368;2023-03-14T10:33:36;100128.34;;;10.31;63.36
49461;BME280;35355;49.198;-0.368;2023-03-14T10:36:28;100140.94;;;10.43;63.87
49461;BME280;35355;49.198;-0.368;2023-03-14T10:39:16;100141.16;;;10.57;63.65
49461;BME280;35355;49.198;-0.368;2023-03-14T10:41:49;100149.06;;;10.63;63.01
49461;BME280;35355;49.198;-0.368;2023-03-14T10:44:20;100148.53;;;10.61;63.15
49461;BME280;35355;49.198;-0.368;2023-03-14T10:46:56;100170.63;;;10.65;63.34
49461;BME280;35355;49.198;-0.368;2023-03-14T10:49:30;100162.16;;;10.77;63.27
49461;BME280;35355;49.198;-0.368;2023-03-14T10:52:01;100175.75;;;10.82;62.96
49461;BME280;35355;49.198;-0.368;2023-03-14T10:54:29;100182.31;;;10.86;62.88
49461;BME280;35355;49.198;-0.368;2023-03-14T10:56:57;100177.94;;;10.90;62.70
49461;BME280;35355;49.198;-0.368;2023-03-14T10:59:23;100180.13;;;10.93;62.64
49461;BME280;35355;49.198;-0.368;2023-03-14T11:02:55;100183.38;;;10.95;63.16
49461;BME280;35355;49.198;-0.368;2023-03-14T11:05:21;100183.06;;;11.07;63.05
49461;BME280;35355;49.198;-0.368;2023-03-14T11:07:52;100171.81;;;11.24;63.06
49461;BME280;35355;49.198;-0.368;2023-03-14T11:10:20;100175.00;;;11.36;62.41
49461;BME280;35355;49.198;-0.368;2023-03-14T11:15:41;100165.34;;;11.59;62.30
49461;BME280;35355;49.198;-0.368;2023-03-14T11:21:02;100196.22;;;11.60;61.22
49461;BME280;35355;49.198;-0.368;2023-03-14T11:23:46;100195.69;;;11.53;61.50
49461;BME280;35355;49.198;-0.368;2023-03-14T11:26:31;100225.00;;;11.47;61.26
49461;BME280;35355;49.198;-0.368;2023-03-14T11:29:08;100249.88;;;11.40;61.37
49461;BME280;35355;49.198;-0.368;2023-03-14T11:31:39;100250.50;;;11.17;61.57
49461;BME280;35355;49.198;-0.368;2023-03-14T11:37:05;100234.22;;;10.65;62.61
49461;BME280;35355;49.198;-0.368;2023-03-14T11:39:38;100243.25;;;10.50;63.06
49461;BME280;35355;49.198;-0.368;2023-03-14T11:42:11;100237.53;;;10.47;63.63
49461;BME280;35355;49.198;-0.368;2023-03-14T11:44:38;100233.94;;;10.46;64.63
49461;BME280;35355;49.198;-0.368;2023-03-14T11:52:45;100262.59;;;10.69;65.10
49461;BME280;35355;49.198;-0.368;2023-03-14T11:55:32;100254.94;;;10.82;64.92
49461;BME280;35355;49.198;-0.368;2023-03-14T11:58:20;100252.50;;;10.85;64.79
49461;BME280;35355;49.198;-0.368;2023-03-14T12:00:48;100252.75;;;10.89;64.98
49461;BME280;35355;49.198;-0.368;2023-03-14T12:08:55;100267.47;;;11.03;64.25
49461;BME280;35355;49.198;-0.368;2023-03-14T12:14:18;100272.38;;;11.12;63.99
49461;BME280;35355;49.198;-0.368;2023-03-14T12:16:47;100284.66;;;11.19;63.59
49461;BME280;35355;49.198;-0.368;2023-03-14T12:19:37;100276.44;;;11.30;64.30
49461;BME280;35355;49.198;-0.368;2023-03-14T12:25:00;100282.06;;;11.54;63.84
49461;BME280;35355;49.198;-0.368;2023-03-14T12:30:43;100302.25;;;11.68;63.00
49461;BME280;35355;49.198;-0.368;2023-03-14T12:43:32;100333.78;;;11.40;61.86
49461;BME280;35355;49.198;-0.368;2023-03-14T12:46:15;100324.78;;;11.24;61.44
49461;BME280;35355;49.198;-0.368;2023-03-14T12:48:49;100335.47;;;11.10;60.91
49461;BME280;35355;49.198;-0.368;2023-03-14T12:51:17;100360.34;;;10.88;60.94
49461;BME280;35355;49.198;-0.368;2023-03-14T13:02:22;100357.84;;;10.45;61.62
49461;BME280;35355;49.198;-0.368;2023-03-14T13:04:52;100367.66;;;10.46;61.81
49461;BME280;35355;49.198;-0.368;2023-03-14T13:10:18;100378.31;;;10.53;62.25
49461;BME280;35355;49.198;-0.368;2023-03-14T13:15:39;100369.59;;;10.66;62.77
49461;BME280;35355;49.198;-0.368;2023-03-14T13:18:14;100380.00;;;10.80;62.55
49461;BME280;35355;49.198;-0.368;2023-03-14T13:20:45;100379.69;;;10.86;61.96
49461;BME280;35355;49.198;-0.368;2023-03-14T13:23:23;100392.00;;;10.89;61.95
49461;BME280;35355;49.198;-0.368;2023-03-14T13:25:49;100401.84;;;10.90;61.22
49461;BME280;35355;49.198;-0.368;2023-03-14T13:28:16;100402.66;;;10.91;61.13
49461;BME280;35355;49.198;-0.368;2023-03-14T13:30:44;100419.84;;;10.96;60.90
49461;BME280;35355;49.198;-0.368;2023-03-14T13:33:28;100405.09;;;11.02;61.87
49461;BME280;35355;49.198;-0.368;2023-03-14T13:36:02;100427.50;;;11.10;60.57
49461;BME280;35355;49.198;-0.368;2023-03-14T13:38:30;100437.91;;;11.08;60.20
49461;BME280;35355;49.198;-0.368;2023-03-14T13:40:57;100432.72;;;11.06;60.20
49461;BME280;35355;49.198;-0.368;2023-03-14T13:43:34;100441.44;;;11.08;60.64
49461;BME280;35355;49.198;-0.368;2023-03-14T13:48:28;100450.44;;;11.09;59.18
49461;BME280;35355;49.198;-0.368;2023-03-14T13:51:00;100461.38;;;11.09;59.24
49461;BME280;35355;49.198;-0.368;2023-03-14T13:53:26;100466.31;;;11.12;58.85
49461;BME280;35355;49.198;-0.368;2023-03-14T13:55:52;100472.06;;;11.10;58.93
49461;BME280;35355;49.198;-0.368;2023-03-14T13:58:29;100470.69;;;11.08;59.53
49461;BME280;35355;49.198;-0.368;2023-03-14T14:01:06;100479.41;;;11.04;59.61
49461;BME280;35355;49.198;-0.368;2023-03-14T14:03:38;100488.69;;;11.09;58.93
49461;BME280;35355;49.198;-0.368;2023-03-14T14:06:20;100495.25;;;11.08;59.17